LGW weather

London Gatwick Airport
London, England, United Kingdom

Public forecast

Using degrees Celsius for public forecast. Weather courtesy of forecast.io.

METAR (pilot weather report)

Retrieved 2019/02/17 14:20 UTC (11 minutes ago):

EGKK 171420Z 19009KT 160V250 9999 FEW020 13/08 Q1015

TAF (pilot weather forecast)

Retrieved 2019/02/17 12:00 UTC (3 hours ago):

TAF EGKK 171053Z 1712/1818 20010KT 9999 FEW018 TEMPO 1715/1802 BKN012 TEMPO 1802/1811 7000 BKN008 PROB30 TEMPO 1804/1809 3000 BR BKN004 PROB40 TEMPO 1811/1818 7000 SHRA RA BKN014